Skip Navigation LinksHome page > Tools > METAR decoder Skip Navigation Links

METAR decoder

Settings

METAR

Chicago O'Hare Intl, Chicago

For information only: do not use for flight planning or navigation.
Latest weather
Observation time Tuesday, November 24, 2020 7:51 PM CST
Local time Tuesday, November 24, 2020 8:22 PM CST
Flight conditions Visual Meteorological Conditions
Winds
Wind direction South (190°)
Wind speed 8 mph
Visibility 7 mi.
Present weather light rain
Sky condition
Ceiling 3,200 ft. overcast
Cloud layer overcast 3,200 ft.
Temperature 43°F
Dewpoint 39°F
Altimeter 29.91 in.Hg
Precipitation
Precipitation last hour trace
Derived measurements
Relative humidity 86%
Wind chill 38°F
Density altitude -274 ft.
Sea-level pressure 29.92 in.Hg
Remarks
Automated weather observing station with precipitation discriminator.
METAR KORD 250151Z 19007KT 7SM -RA OVC032 06/04 A2991 RMK AO2 SLP133 P0000 T00610039

InnerDrive.Weather 4.0.6770.0 Release CLR 4.0.30319.42000
Copyright ©2018 Inner Drive Technology. All rights reserved. Portions Copyright ©1986-2018 David Braverman.

Find weather

Site navigation


Skip Navigation Links

Place info

Page info

PayPal - The safer, easier way to pay online!

Return home.

Copyright ©2020 Inner Drive Technology. Purveyors of fine, hand-crafted computer software. Page printed 2020-11-25T02:22:29 UTC.